sensor_id;sensor_type;location;lat;lon;timestamp;P1;durP1;ratioP1;P2;durP2;ratioP2
43118;SDS011;28729;49.838;8.650;2024-03-08T00:03:16;27.30;;;13.75;;
43118;SDS011;28729;49.838;8.650;2024-03-08T00:07:18;28.52;;;12.68;;
43118;SDS011;28729;49.838;8.650;2024-03-08T00:11:20;25.40;;;13.23;;
43118;SDS011;28729;49.838;8.650;2024-03-08T00:15:23;28.02;;;14.52;;
43118;SDS011;28729;49.838;8.650;2024-03-08T00:23:27;23.48;;;12.20;;
43118;SDS011;28729;49.838;8.650;2024-03-08T00:27:30;27.15;;;12.63;;
43118;SDS011;28729;49.838;8.650;2024-03-08T00:35:34;25.58;;;12.93;;
43118;SDS011;28729;49.838;8.650;2024-03-08T00:39:36;26.50;;;12.55;;
43118;SDS011;28729;49.838;8.650;2024-03-08T00:43:38;20.27;;;9.70;;
43118;SDS011;28729;49.838;8.650;2024-03-08T00:47:48;27.55;;;12.10;;
43118;SDS011;28729;49.838;8.650;2024-03-08T00:51:50;25.13;;;13.37;;
43118;SDS011;28729;49.838;8.650;2024-03-08T00:55:52;26.97;;;13.63;;
43118;SDS011;28729;49.838;8.650;2024-03-08T00:59:54;26.20;;;13.65;;
43118;SDS011;28729;49.838;8.650;2024-03-08T01:03:56;24.53;;;12.50;;
43118;SDS011;28729;49.838;8.650;2024-03-08T01:07:58;26.20;;;12.80;;
43118;SDS011;28729;49.838;8.650;2024-03-08T01:12:00;26.05;;;12.10;;
43118;SDS011;28729;49.838;8.650;2024-03-08T01:20:06;27.27;;;12.65;;
43118;SDS011;28729;49.838;8.650;2024-03-08T01:24:08;27.40;;;13.40;;
43118;SDS011;28729;49.838;8.650;2024-03-08T01:28:11;27.40;;;12.95;;
43118;SDS011;28729;49.838;8.650;2024-03-08T01:32:14;24.67;;;12.10;;
43118;SDS011;28729;49.838;8.650;2024-03-08T01:36:16;28.83;;;13.25;;
43118;SDS011;28729;49.838;8.650;2024-03-08T01:40:20;25.98;;;12.95;;
43118;SDS011;28729;49.838;8.650;2024-03-08T01:44:22;28.42;;;12.93;;
43118;SDS011;28729;49.838;8.650;2024-03-08T01:48:24;26.63;;;13.17;;
43118;SDS011;28729;49.838;8.650;2024-03-08T01:52:26;28.77;;;14.23;;
43118;SDS011;28729;49.838;8.650;2024-03-08T01:56:31;30.77;;;13.82;;
43118;SDS011;28729;49.838;8.650;2024-03-08T02:00:34;25.88;;;12.27;;
43118;SDS011;28729;49.838;8.650;2024-03-08T02:04:38;27.92;;;12.05;;
43118;SDS011;28729;49.838;8.650;2024-03-08T02:08:41;25.77;;;12.90;;
43118;SDS011;28729;49.838;8.650;2024-03-08T02:12:46;29.77;;;14.30;;
43118;SDS011;28729;49.838;8.650;2024-03-08T02:16:48;27.85;;;12.57;;
43118;SDS011;28729;49.838;8.650;2024-03-08T02:20:53;27.48;;;13.07;;
43118;SDS011;28729;49.838;8.650;2024-03-08T02:24:56;29.33;;;14.45;;
43118;SDS011;28729;49.838;8.650;2024-03-08T02:28:59;30.00;;;12.90;;
43118;SDS011;28729;49.838;8.650;2024-03-08T02:33:00;27.60;;;13.65;;
43118;SDS011;28729;49.838;8.650;2024-03-08T02:41:05;28.08;;;12.50;;
43118;SDS011;28729;49.838;8.650;2024-03-08T02:45:07;31.80;;;12.50;;
43118;SDS011;28729;49.838;8.650;2024-03-08T02:49:14;31.08;;;13.98;;
43118;SDS011;28729;49.838;8.650;2024-03-08T02:53:15;28.90;;;14.40;;
43118;SDS011;28729;49.838;8.650;2024-03-08T02:57:18;28.73;;;13.82;;
43118;SDS011;28729;49.838;8.650;2024-03-08T03:01:20;28.73;;;12.35;;
43118;SDS011;28729;49.838;8.650;2024-03-08T03:05:23;31.87;;;13.47;;
43118;SDS011;28729;49.838;8.650;2024-03-08T03:09:26;30.60;;;13.60;;
43118;SDS011;28729;49.838;8.650;2024-03-08T03:13:29;30.50;;;13.82;;
43118;SDS011;28729;49.838;8.650;2024-03-08T03:17:31;32.83;;;12.90;;
43118;SDS011;28729;49.838;8.650;2024-03-08T03:21:33;34.03;;;14.67;;
43118;SDS011;28729;49.838;8.650;2024-03-08T03:25:37;34.55;;;15.25;;
43118;SDS011;28729;49.838;8.650;2024-03-08T03:29:43;31.83;;;13.25;;
43118;SDS011;28729;49.838;8.650;2024-03-08T03:33:48;31.35;;;13.63;;
43118;SDS011;28729;49.838;8.650;2024-03-08T03:37:53;30.08;;;13.55;;
43118;SDS011;28729;49.838;8.650;2024-03-08T03:42:09;26.60;;;13.38;;
43118;SDS011;28729;49.838;8.650;2024-03-08T03:46:11;31.90;;;13.77;;
43118;SDS011;28729;49.838;8.650;2024-03-08T03:50:13;27.97;;;14.03;;
43118;SDS011;28729;49.838;8.650;2024-03-08T03:54:15;30.08;;;12.80;;
43118;SDS011;28729;49.838;8.650;2024-03-08T03:58:17;35.90;;;15.10;;
43118;SDS011;28729;49.838;8.650;2024-03-08T04:02:24;28.40;;;13.27;;
43118;SDS011;28729;49.838;8.650;2024-03-08T04:06:28;32.33;;;13.18;;
43118;SDS011;28729;49.838;8.650;2024-03-08T04:10:30;33.10;;;13.97;;
43118;SDS011;28729;49.838;8.650;2024-03-08T04:14:32;34.80;;;13.90;;
43118;SDS011;28729;49.838;8.650;2024-03-08T04:18:34;32.08;;;13.48;;
43118;SDS011;28729;49.838;8.650;2024-03-08T04:22:39;26.58;;;13.25;;
43118;SDS011;28729;49.838;8.650;2024-03-08T04:26:41;36.60;;;17.00;;
43118;SDS011;28729;49.838;8.650;2024-03-08T04:30:43;37.17;;;17.23;;
43118;SDS011;28729;49.838;8.650;2024-03-08T04:34:45;33.08;;;13.88;;
43118;SDS011;28729;49.838;8.650;2024-03-08T04:38:47;34.17;;;17.10;;
43118;SDS011;28729;49.838;8.650;2024-03-08T04:42:49;37.63;;;18.05;;
43118;SDS011;28729;49.838;8.650;2024-03-08T04:46:52;39.85;;;17.20;;
43118;SDS011;28729;49.838;8.650;2024-03-08T04:50:54;49.92;;;22.75;;
43118;SDS011;28729;49.838;8.650;2024-03-08T04:54:57;36.42;;;17.50;;
43118;SDS011;28729;49.838;8.650;2024-03-08T04:58:59;28.33;;;12.10;;
43118;SDS011;28729;49.838;8.650;2024-03-08T05:03:01;33.05;;;14.02;;
43118;SDS011;28729;49.838;8.650;2024-03-08T05:07:03;36.05;;;14.88;;
43118;SDS011;28729;49.838;8.650;2024-03-08T05:11:05;33.90;;;14.20;;
43118;SDS011;28729;49.838;8.650;2024-03-08T05:15:08;32.63;;;15.85;;
43118;SDS011;28729;49.838;8.650;2024-03-08T05:19:11;36.35;;;15.93;;
43118;SDS011;28729;49.838;8.650;2024-03-08T05:23:12;36.22;;;16.88;;
43118;SDS011;28729;49.838;8.650;2024-03-08T05:27:14;31.10;;;14.13;;
43118;SDS011;28729;49.838;8.650;2024-03-08T05:31:20;34.27;;;13.57;;
43118;SDS011;28729;49.838;8.650;2024-03-08T05:35:24;32.03;;;13.38;;
43118;SDS011;28729;49.838;8.650;2024-03-08T05:39:26;23.85;;;10.55;;
43118;SDS011;28729;49.838;8.650;2024-03-08T05:43:28;29.98;;;14.10;;
43118;SDS011;28729;49.838;8.650;2024-03-08T05:47:29;29.17;;;13.87;;
43118;SDS011;28729;49.838;8.650;2024-03-08T05:51:35;34.22;;;13.98;;
43118;SDS011;28729;49.838;8.650;2024-03-08T05:55:39;37.13;;;14.05;;
43118;SDS011;28729;49.838;8.650;2024-03-08T05:59:42;40.53;;;12.90;;
43118;SDS011;28729;49.838;8.650;2024-03-08T06:03:43;34.05;;;13.85;;
43118;SDS011;28729;49.838;8.650;2024-03-08T06:07:50;39.03;;;14.38;;
43118;SDS011;28729;49.838;8.650;2024-03-08T06:11:54;33.67;;;14.15;;
43118;SDS011;28729;49.838;8.650;2024-03-08T06:15:56;31.67;;;14.98;;
43118;SDS011;28729;49.838;8.650;2024-03-08T06:19:58;27.13;;;12.60;;
43118;SDS011;28729;49.838;8.650;2024-03-08T06:24:01;34.70;;;15.10;;
43118;SDS011;28729;49.838;8.650;2024-03-08T06:28:03;36.60;;;13.67;;
43118;SDS011;28729;49.838;8.650;2024-03-08T06:32:05;36.42;;;14.98;;
43118;SDS011;28729;49.838;8.650;2024-03-08T06:36:08;25.77;;;12.00;;
43118;SDS011;28729;49.838;8.650;2024-03-08T06:40:11;34.08;;;14.10;;
43118;SDS011;28729;49.838;8.650;2024-03-08T06:44:15;32.92;;;13.63;;
43118;SDS011;28729;49.838;8.650;2024-03-08T06:48:18;33.05;;;15.20;;
43118;SDS011;28729;49.838;8.650;2024-03-08T06:56:23;31.92;;;12.93;;
43118;SDS011;28729;49.838;8.650;2024-03-08T07:00:25;35.55;;;14.90;;
43118;SDS011;28729;49.838;8.650;2024-03-08T07:04:30;37.00;;;14.70;;
43118;SDS011;28729;49.838;8.650;2024-03-08T07:12:34;34.67;;;14.30;;
43118;SDS011;28729;49.838;8.650;2024-03-08T07:16:38;35.63;;;15.52;;
43118;SDS011;28729;49.838;8.650;2024-03-08T07:20:44;34.90;;;15.65;;
43118;SDS011;28729;49.838;8.650;2024-03-08T07:24:46;40.30;;;16.52;;
43118;SDS011;28729;49.838;8.650;2024-03-08T07:29:19;35.67;;;14.88;;
43118;SDS011;28729;49.838;8.650;2024-03-08T07:33:21;38.47;;;15.43;;
43118;SDS011;28729;49.838;8.650;2024-03-08T07:37:24;42.40;;;16.33;;
43118;SDS011;28729;49.838;8.650;2024-03-08T07:41:27;35.67;;;15.38;;
43118;SDS011;28729;49.838;8.650;2024-03-08T07:45:31;36.10;;;15.95;;
43118;SDS011;28729;49.838;8.650;2024-03-08T07:49:33;32.92;;;14.68;;
43118;SDS011;28729;49.838;8.650;2024-03-08T07:53:36;34.90;;;14.82;;
43118;SDS011;28729;49.838;8.650;2024-03-08T07:57:37;27.50;;;11.93;;
43118;SDS011;28729;49.838;8.650;2024-03-08T08:01:39;34.75;;;15.48;;
43118;SDS011;28729;49.838;8.650;2024-03-08T08:05:41;28.90;;;16.37;;
43118;SDS011;28729;49.838;8.650;2024-03-08T08:09:43;34.20;;;15.15;;
43118;SDS011;28729;49.838;8.650;2024-03-08T08:13:45;25.20;;;14.25;;
43118;SDS011;28729;49.838;8.650;2024-03-08T08:17:47;31.83;;;15.60;;
43118;SDS011;28729;49.838;8.650;2024-03-08T08:21:49;28.58;;;14.20;;
43118;SDS011;28729;49.838;8.650;2024-03-08T08:25:51;37.55;;;15.95;;
43118;SDS011;28729;49.838;8.650;2024-03-08T08:29:53;32.63;;;15.45;;
43118;SDS011;28729;49.838;8.650;2024-03-08T08:33:55;30.67;;;14.90;;
43118;SDS011;28729;49.838;8.650;2024-03-08T08:37:59;29.83;;;15.18;;
43118;SDS011;28729;49.838;8.650;2024-03-08T08:42:01;26.67;;;14.15;;
43118;SDS011;28729;49.838;8.650;2024-03-08T08:46:05;28.75;;;14.13;;
43118;SDS011;28729;49.838;8.650;2024-03-08T08:50:06;28.35;;;13.68;;
43118;SDS011;28729;49.838;8.650;2024-03-08T08:54:09;28.00;;;13.23;;
43118;SDS011;28729;49.838;8.650;2024-03-08T08:58:14;25.45;;;12.90;;
43118;SDS011;28729;49.838;8.650;2024-03-08T09:02:16;26.90;;;14.03;;
43118;SDS011;28729;49.838;8.650;2024-03-08T09:06:19;28.50;;;15.15;;
43118;SDS011;28729;49.838;8.650;2024-03-08T09:10:21;26.38;;;12.32;;
43118;SDS011;28729;49.838;8.650;2024-03-08T09:14:23;27.47;;;14.40;;
43118;SDS011;28729;49.838;8.650;2024-03-08T09:18:27;23.10;;;12.52;;
43118;SDS011;28729;49.838;8.650;2024-03-08T09:22:29;22.35;;;12.50;;
43118;SDS011;28729;49.838;8.650;2024-03-08T09:26:31;25.92;;;14.45;;
43118;SDS011;28729;49.838;8.650;2024-03-08T09:30:34;27.00;;;13.45;;
43118;SDS011;28729;49.838;8.650;2024-03-08T09:38:40;26.42;;;13.13;;
43118;SDS011;28729;49.838;8.650;2024-03-08T09:42:47;29.17;;;14.35;;
43118;SDS011;28729;49.838;8.650;2024-03-08T09:46:49;27.63;;;13.82;;
43118;SDS011;28729;49.838;8.650;2024-03-08T09:50:54;25.00;;;13.73;;
43118;SDS011;28729;49.838;8.650;2024-03-08T09:54:57;24.85;;;13.38;;
43118;SDS011;28729;49.838;8.650;2024-03-08T09:58:59;29.77;;;14.13;;
43118;SDS011;28729;49.838;8.650;2024-03-08T10:03:07;24.90;;;13.68;;
43118;SDS011;28729;49.838;8.650;2024-03-08T10:07:13;26.98;;;14.43;;
43118;SDS011;28729;49.838;8.650;2024-03-08T10:11:15;28.03;;;14.27;;
43118;SDS011;28729;49.838;8.650;2024-03-08T10:15:18;25.43;;;13.87;;
43118;SDS011;28729;49.838;8.650;2024-03-08T10:19:21;28.08;;;13.90;;
43118;SDS011;28729;49.838;8.650;2024-03-08T10:23:26;30.80;;;13.25;;
43118;SDS011;28729;49.838;8.650;2024-03-08T10:27:29;33.03;;;16.05;;
43118;SDS011;28729;49.838;8.650;2024-03-08T10:31:32;27.98;;;15.52;;
43118;SDS011;28729;49.838;8.650;2024-03-08T10:35:34;28.20;;;14.52;;
43118;SDS011;28729;49.838;8.650;2024-03-08T10:39:36;25.90;;;13.07;;
43118;SDS011;28729;49.838;8.650;2024-03-08T10:44:06;26.67;;;14.00;;
43118;SDS011;28729;49.838;8.650;2024-03-08T10:48:20;24.17;;;13.60;;
43118;SDS011;28729;49.838;8.650;2024-03-08T10:52:40;22.08;;;13.68;;
43118;SDS011;28729;49.838;8.650;2024-03-08T10:56:42;22.87;;;14.43;;
43118;SDS011;28729;49.838;8.650;2024-03-08T11:00:45;22.67;;;13.43;;
43118;SDS011;28729;49.838;8.650;2024-03-08T11:04:49;22.20;;;12.68;;
43118;SDS011;28729;49.838;8.650;2024-03-08T11:08:52;25.80;;;13.13;;
43118;SDS011;28729;49.838;8.650;2024-03-08T11:12:57;27.67;;;14.38;;
43118;SDS011;28729;49.838;8.650;2024-03-08T11:17:00;23.90;;;13.88;;
43118;SDS011;28729;49.838;8.650;2024-03-08T11:21:09;25.58;;;13.25;;
43118;SDS011;28729;49.838;8.650;2024-03-08T11:29:42;25.90;;;13.00;;
43118;SDS011;28729;49.838;8.650;2024-03-08T11:33:44;21.00;;;11.40;;
43118;SDS011;28729;49.838;8.650;2024-03-08T11:37:50;23.83;;;12.93;;
43118;SDS011;28729;49.838;8.650;2024-03-08T11:41:52;26.90;;;13.63;;
43118;SDS011;28729;49.838;8.650;2024-03-08T11:46:07;27.70;;;14.07;;
43118;SDS011;28729;49.838;8.650;2024-03-08T11:50:13;27.75;;;14.38;;
43118;SDS011;28729;49.838;8.650;2024-03-08T11:54:15;21.80;;;12.45;;
43118;SDS011;28729;49.838;8.650;2024-03-08T11:58:25;22.02;;;12.80;;
43118;SDS011;28729;49.838;8.650;2024-03-08T12:02:29;24.17;;;13.88;;
43118;SDS011;28729;49.838;8.650;2024-03-08T12:11:16;25.48;;;14.25;;
43118;SDS011;28729;49.838;8.650;2024-03-08T12:15:26;25.02;;;15.20;;
43118;SDS011;28729;49.838;8.650;2024-03-08T12:19:29;23.23;;;14.38;;
43118;SDS011;28729;49.838;8.650;2024-03-08T12:23:31;27.50;;;15.60;;
43118;SDS011;28729;49.838;8.650;2024-03-08T12:27:34;22.00;;;14.37;;
43118;SDS011;28729;49.838;8.650;2024-03-08T12:31:38;22.60;;;15.25;;
43118;SDS011;28729;49.838;8.650;2024-03-08T12:35:51;22.13;;;14.48;;
43118;SDS011;28729;49.838;8.650;2024-03-08T12:39:56;21.00;;;14.13;;
43118;SDS011;28729;49.838;8.650;2024-03-08T12:44:00;22.45;;;14.25;;
43118;SDS011;28729;49.838;8.650;2024-03-08T12:48:02;23.50;;;14.90;;
43118;SDS011;28729;49.838;8.650;2024-03-08T12:52:11;22.25;;;14.63;;
43118;SDS011;28729;49.838;8.650;2024-03-08T12:56:16;21.50;;;14.77;;
43118;SDS011;28729;49.838;8.650;2024-03-08T13:00:50;22.85;;;15.65;;
43118;SDS011;28729;49.838;8.650;2024-03-08T13:04:56;22.75;;;15.05;;
43118;SDS011;28729;49.838;8.650;2024-03-08T13:09:21;22.38;;;14.45;;
43118;SDS011;28729;49.838;8.650;2024-03-08T13:13:24;22.48;;;14.98;;
43118;SDS011;28729;49.838;8.650;2024-03-08T13:17:35;25.38;;;15.57;;
43118;SDS011;28729;49.838;8.650;2024-03-08T13:21:50;22.40;;;14.45;;
43118;SDS011;28729;49.838;8.650;2024-03-08T13:25:55;21.42;;;15.02;;
43118;SDS011;28729;49.838;8.650;2024-03-08T13:29:59;22.85;;;14.55;;
43118;SDS011;28729;49.838;8.650;2024-03-08T13:34:01;26.30;;;15.03;;
43118;SDS011;28729;49.838;8.650;2024-03-08T13:38:02;21.90;;;13.20;;
43118;SDS011;28729;49.838;8.650;2024-03-08T13:42:09;23.25;;;13.82;;
43118;SDS011;28729;49.838;8.650;2024-03-08T13:46:21;27.35;;;13.40;;
43118;SDS011;28729;49.838;8.650;2024-03-08T13:50:23;27.77;;;14.03;;
43118;SDS011;28729;49.838;8.650;2024-03-08T13:54:29;26.08;;;14.15;;
43118;SDS011;28729;49.838;8.650;2024-03-08T13:58:33;24.02;;;14.32;;
43118;SDS011;28729;49.838;8.650;2024-03-08T14:02:36;23.90;;;13.02;;
43118;SDS011;28729;49.838;8.650;2024-03-08T14:06:41;26.95;;;14.68;;
43118;SDS011;28729;49.838;8.650;2024-03-08T14:10:44;23.52;;;13.10;;
43118;SDS011;28729;49.838;8.650;2024-03-08T14:14:48;23.92;;;13.27;;
43118;SDS011;28729;49.838;8.650;2024-03-08T14:18:51;21.40;;;13.27;;
43118;SDS011;28729;49.838;8.650;2024-03-08T14:22:58;28.13;;;14.32;;
43118;SDS011;28729;49.838;8.650;2024-03-08T14:27:01;25.17;;;14.20;;
43118;SDS011;28729;49.838;8.650;2024-03-08T14:31:09;24.38;;;13.45;;
43118;SDS011;28729;49.838;8.650;2024-03-08T14:35:14;22.73;;;12.40;;
43118;SDS011;28729;49.838;8.650;2024-03-08T14:39:15;26.45;;;12.70;;
43118;SDS011;28729;49.838;8.650;2024-03-08T14:43:23;21.98;;;11.82;;
43118;SDS011;28729;49.838;8.650;2024-03-08T14:51:27;22.52;;;11.73;;
43118;SDS011;28729;49.838;8.650;2024-03-08T14:55:29;21.27;;;12.60;;
43118;SDS011;28729;49.838;8.650;2024-03-08T14:59:32;24.88;;;13.77;;
43118;SDS011;28729;49.838;8.650;2024-03-08T15:03:35;25.08;;;13.95;;
43118;SDS011;28729;49.838;8.650;2024-03-08T15:07:39;19.92;;;11.32;;
43118;SDS011;28729;49.838;8.650;2024-03-08T15:11:41;23.30;;;11.75;;
43118;SDS011;28729;49.838;8.650;2024-03-08T15:15:44;19.67;;;11.50;;
43118;SDS011;28729;49.838;8.650;2024-03-08T15:19:53;19.00;;;10.27;;
43118;SDS011;28729;49.838;8.650;2024-03-08T15:23:56;22.13;;;10.95;;
43118;SDS011;28729;49.838;8.650;2024-03-08T15:27:58;19.33;;;10.88;;
43118;SDS011;28729;49.838;8.650;2024-03-08T15:32:00;18.70;;;10.10;;
43118;SDS011;28729;49.838;8.650;2024-03-08T15:36:02;21.43;;;10.37;;
43118;SDS011;28729;49.838;8.650;2024-03-08T15:40:14;21.90;;;10.88;;
43118;SDS011;28729;49.838;8.650;2024-03-08T15:44:24;20.67;;;9.52;;
43118;SDS011;28729;49.838;8.650;2024-03-08T15:48:33;18.50;;;10.07;;
43118;SDS011;28729;49.838;8.650;2024-03-08T15:52:36;17.55;;;8.80;;
43118;SDS011;28729;49.838;8.650;2024-03-08T15:56:45;20.23;;;10.52;;
43118;SDS011;28729;49.838;8.650;2024-03-08T16:00:48;20.70;;;9.40;;
43118;SDS011;28729;49.838;8.650;2024-03-08T16:04:52;16.33;;;8.70;;
43118;SDS011;28729;49.838;8.650;2024-03-08T16:08:55;18.33;;;9.80;;
43118;SDS011;28729;49.838;8.650;2024-03-08T16:12:57;17.80;;;9.40;;
43118;SDS011;28729;49.838;8.650;2024-03-08T16:16:59;17.40;;;9.23;;
43118;SDS011;28729;49.838;8.650;2024-03-08T16:21:03;19.02;;;8.90;;
43118;SDS011;28729;49.838;8.650;2024-03-08T16:25:05;12.57;;;7.40;;
43118;SDS011;28729;49.838;8.650;2024-03-08T16:29:15;18.77;;;8.88;;
43118;SDS011;28729;49.838;8.650;2024-03-08T16:37:24;19.77;;;9.70;;
43118;SDS011;28729;49.838;8.650;2024-03-08T16:41:28;16.98;;;8.57;;
43118;SDS011;28729;49.838;8.650;2024-03-08T16:45:30;14.90;;;7.57;;
43118;SDS011;28729;49.838;8.650;2024-03-08T16:49:33;17.70;;;8.30;;
43118;SDS011;28729;49.838;8.650;2024-03-08T16:53:35;16.10;;;8.10;;
43118;SDS011;28729;49.838;8.650;2024-03-08T16:57:43;14.80;;;7.93;;
43118;SDS011;28729;49.838;8.650;2024-03-08T17:01:46;13.88;;;8.13;;
43118;SDS011;28729;49.838;8.650;2024-03-08T17:09:57;14.40;;;7.03;;
43118;SDS011;28729;49.838;8.650;2024-03-08T17:13:59;15.88;;;7.95;;
43118;SDS011;28729;49.838;8.650;2024-03-08T17:18:02;12.85;;;7.15;;
43118;SDS011;28729;49.838;8.650;2024-03-08T17:22:08;17.05;;;7.22;;
43118;SDS011;28729;49.838;8.650;2024-03-08T17:26:11;14.88;;;6.88;;
43118;SDS011;28729;49.838;8.650;2024-03-08T17:34:21;13.75;;;7.28;;
43118;SDS011;28729;49.838;8.650;2024-03-08T17:38:23;16.00;;;8.13;;
43118;SDS011;28729;49.838;8.650;2024-03-08T17:42:26;22.52;;;10.63;;
43118;SDS011;28729;49.838;8.650;2024-03-08T17:46:29;13.20;;;7.82;;
43118;SDS011;28729;49.838;8.650;2024-03-08T17:50:30;20.58;;;7.40;;
43118;SDS011;28729;49.838;8.650;2024-03-08T17:54:32;13.98;;;7.15;;
43118;SDS011;28729;49.838;8.650;2024-03-08T17:58:36;17.67;;;7.03;;
43118;SDS011;28729;49.838;8.650;2024-03-08T18:02:39;12.02;;;6.07;;
43118;SDS011;28729;49.838;8.650;2024-03-08T18:06:41;13.60;;;6.32;;
43118;SDS011;28729;49.838;8.650;2024-03-08T18:10:43;12.50;;;7.07;;
43118;SDS011;28729;49.838;8.650;2024-03-08T18:14:45;11.43;;;6.30;;
43118;SDS011;28729;49.838;8.650;2024-03-08T18:18:49;16.65;;;8.43;;
43118;SDS011;28729;49.838;8.650;2024-03-08T18:22:51;12.48;;;7.43;;
43118;SDS011;28729;49.838;8.650;2024-03-08T18:26:53;14.60;;;7.00;;
43118;SDS011;28729;49.838;8.650;2024-03-08T18:30:55;14.50;;;6.10;;
43118;SDS011;28729;49.838;8.650;2024-03-08T18:34:57;13.82;;;6.72;;
43118;SDS011;28729;49.838;8.650;2024-03-08T18:38:59;17.15;;;7.70;;
43118;SDS011;28729;49.838;8.650;2024-03-08T18:43:01;15.27;;;7.78;;
43118;SDS011;28729;49.838;8.650;2024-03-08T18:47:03;15.93;;;7.63;;
43118;SDS011;28729;49.838;8.650;2024-03-08T18:51:05;15.37;;;7.17;;
43118;SDS011;28729;49.838;8.650;2024-03-08T18:55:07;16.52;;;7.70;;
43118;SDS011;28729;49.838;8.650;2024-03-08T18:59:26;14.73;;;8.15;;
43118;SDS011;28729;49.838;8.650;2024-03-08T19:03:29;11.77;;;6.43;;
43118;SDS011;28729;49.838;8.650;2024-03-08T19:07:31;13.07;;;7.35;;
43118;SDS011;28729;49.838;8.650;2024-03-08T19:11:36;13.95;;;8.43;;
43118;SDS011;28729;49.838;8.650;2024-03-08T19:15:38;15.70;;;6.53;;
43118;SDS011;28729;49.838;8.650;2024-03-08T19:19:40;13.73;;;6.83;;
43118;SDS011;28729;49.838;8.650;2024-03-08T19:23:42;14.97;;;7.83;;
43118;SDS011;28729;49.838;8.650;2024-03-08T19:27:45;14.75;;;7.25;;
43118;SDS011;28729;49.838;8.650;2024-03-08T19:31:48;16.20;;;7.70;;
43118;SDS011;28729;49.838;8.650;2024-03-08T19:39:53;15.88;;;8.20;;
43118;SDS011;28729;49.838;8.650;2024-03-08T19:43:55;17.53;;;8.13;;
43118;SDS011;28729;49.838;8.650;2024-03-08T19:47:57;19.33;;;9.27;;
43118;SDS011;28729;49.838;8.650;2024-03-08T19:52:01;18.88;;;9.15;;
43118;SDS011;28729;49.838;8.650;2024-03-08T19:56:06;15.85;;;8.35;;
43118;SDS011;28729;49.838;8.650;2024-03-08T20:00:09;16.13;;;7.57;;
43118;SDS011;28729;49.838;8.650;2024-03-08T20:04:16;18.52;;;8.73;;
43118;SDS011;28729;49.838;8.650;2024-03-08T20:08:18;14.88;;;7.50;;
43118;SDS011;28729;49.838;8.650;2024-03-08T20:12:22;17.08;;;8.23;;
43118;SDS011;28729;49.838;8.650;2024-03-08T20:16:24;15.67;;;7.93;;
43118;SDS011;28729;49.838;8.650;2024-03-08T20:20:26;17.52;;;7.30;;
43118;SDS011;28729;49.838;8.650;2024-03-08T20:24:28;15.70;;;8.20;;
43118;SDS011;28729;49.838;8.650;2024-03-08T20:28:30;15.93;;;8.20;;
43118;SDS011;28729;49.838;8.650;2024-03-08T20:32:34;17.83;;;8.38;;
43118;SDS011;28729;49.838;8.650;2024-03-08T20:36:36;15.23;;;8.15;;
43118;SDS011;28729;49.838;8.650;2024-03-08T20:40:38;17.42;;;8.73;;
43118;SDS011;28729;49.838;8.650;2024-03-08T20:44:41;19.27;;;8.73;;
43118;SDS011;28729;49.838;8.650;2024-03-08T20:48:42;13.85;;;7.60;;
43118;SDS011;28729;49.838;8.650;2024-03-08T20:52:47;18.17;;;8.98;;
43118;SDS011;28729;49.838;8.650;2024-03-08T20:56:51;15.25;;;8.27;;
43118;SDS011;28729;49.838;8.650;2024-03-08T21:00:53;18.00;;;8.53;;
43118;SDS011;28729;49.838;8.650;2024-03-08T21:04:57;17.15;;;8.60;;
43118;SDS011;28729;49.838;8.650;2024-03-08T21:08:59;17.15;;;8.52;;
43118;SDS011;28729;49.838;8.650;2024-03-08T21:13:01;20.08;;;8.93;;
43118;SDS011;28729;49.838;8.650;2024-03-08T21:17:03;14.40;;;7.30;;
43118;SDS011;28729;49.838;8.650;2024-03-08T21:21:07;18.10;;;8.88;;
43118;SDS011;28729;49.838;8.650;2024-03-08T21:25:10;19.43;;;9.40;;
43118;SDS011;28729;49.838;8.650;2024-03-08T21:29:12;16.63;;;8.65;;
43118;SDS011;28729;49.838;8.650;2024-03-08T21:33:14;16.25;;;8.20;;
43118;SDS011;28729;49.838;8.650;2024-03-08T21:37:16;18.10;;;10.03;;
43118;SDS011;28729;49.838;8.650;2024-03-08T21:41:20;20.33;;;9.07;;
43118;SDS011;28729;49.838;8.650;2024-03-08T21:45:22;20.77;;;10.10;;
43118;SDS011;28729;49.838;8.650;2024-03-08T21:49:28;19.05;;;8.77;;
43118;SDS011;28729;49.838;8.650;2024-03-08T21:53:31;20.73;;;9.82;;
43118;SDS011;28729;49.838;8.650;2024-03-08T21:57:36;25.80;;;10.52;;
43118;SDS011;28729;49.838;8.650;2024-03-08T22:01:38;17.05;;;8.57;;
43118;SDS011;28729;49.838;8.650;2024-03-08T22:05:40;16.25;;;8.93;;
43118;SDS011;28729;49.838;8.650;2024-03-08T22:09:43;16.25;;;8.80;;
43118;SDS011;28729;49.838;8.650;2024-03-08T22:13:45;17.42;;;8.63;;
43118;SDS011;28729;49.838;8.650;2024-03-08T22:17:47;19.15;;;8.60;;
43118;SDS011;28729;49.838;8.650;2024-03-08T22:21:50;21.85;;;8.63;;
43118;SDS011;28729;49.838;8.650;2024-03-08T22:25:52;14.80;;;7.88;;
43118;SDS011;28729;49.838;8.650;2024-03-08T22:33:57;22.58;;;10.88;;
43118;SDS011;28729;49.838;8.650;2024-03-08T22:37:59;20.70;;;10.13;;
43118;SDS011;28729;49.838;8.650;2024-03-08T22:42:02;18.58;;;9.35;;
43118;SDS011;28729;49.838;8.650;2024-03-08T22:46:04;20.40;;;9.60;;
43118;SDS011;28729;49.838;8.650;2024-03-08T22:50:07;17.77;;;9.07;;
43118;SDS011;28729;49.838;8.650;2024-03-08T22:54:10;19.08;;;9.18;;
43118;SDS011;28729;49.838;8.650;2024-03-08T22:58:16;23.10;;;10.25;;
43118;SDS011;28729;49.838;8.650;2024-03-08T23:02:18;18.10;;;9.48;;
43118;SDS011;28729;49.838;8.650;2024-03-08T23:06:20;19.15;;;9.20;;
43118;SDS011;28729;49.838;8.650;2024-03-08T23:10:23;23.02;;;9.98;;
43118;SDS011;28729;49.838;8.650;2024-03-08T23:14:26;17.00;;;9.05;;
43118;SDS011;28729;49.838;8.650;2024-03-08T23:18:28;18.17;;;9.48;;
43118;SDS011;28729;49.838;8.650;2024-03-08T23:22:30;18.57;;;8.97;;
43118;SDS011;28729;49.838;8.650;2024-03-08T23:26:32;19.10;;;8.97;;
43118;SDS011;28729;49.838;8.650;2024-03-08T23:30:34;21.35;;;9.43;;
43118;SDS011;28729;49.838;8.650;2024-03-08T23:34:42;18.50;;;9.45;;
43118;SDS011;28729;49.838;8.650;2024-03-08T23:38:44;20.08;;;9.73;;
43118;SDS011;28729;49.838;8.650;2024-03-08T23:42:47;22.67;;;9.63;;
43118;SDS011;28729;49.838;8.650;2024-03-08T23:46:49;19.90;;;9.02;;
43118;SDS011;28729;49.838;8.650;2024-03-08T23:50:52;20.55;;;9.95;;
43118;SDS011;28729;49.838;8.650;2024-03-08T23:54:54;21.70;;;9.77;;
43118;SDS011;28729;49.838;8.650;2024-03-08T23:58:56;20.35;;;10.15;;
